Time;durP1;ratioP1;P1;durP2;ratioP2;P2;SDS_P1;SDS_P2;PMS_P1;PMS_P2;Temp;Humidity;BMP_temperature;BMP_pressure;BME280_temperature;BME280_humidity;BME280_pressure;Samples;Min_cycle;Max_cycle;Signal;HPM_P1;HPM_P2
2022/03/13 00:00:21;;;;;;;17.70;11.10;;;7.80;99.90;;;;;;5019591;28;20065;-77
2022/03/13 00:02:47;;;;;;;17.35;11.18;;;7.80;99.90;;;;;;5014493;28;20049;-77
2022/03/13 00:05:16;;;;;;;19.40;11.50;;;7.80;99.90;;;;;;5012111;28;21022;-76
2022/03/13 00:07:43;;;;;;;19.85;11.35;;;7.80;99.90;;;;;;5011294;28;20046;-77
2022/03/13 00:10:10;;;;;;;18.10;11.23;;;7.80;99.90;;;;;;5009835;28;20041;-77
2022/03/13 00:12:35;;;;;;;;;;;8.20;99.90;;;;;;5011625;28;20046;-78
2022/03/13 00:15:03;;;;;;;19.08;11.90;;;7.70;99.90;;;;;;5001991;28;19921;-77
2022/03/13 00:17:30;;;;;;;17.92;11.52;;;7.70;99.90;;;;;;5008685;28;20075;-77
2022/03/13 00:20:00;;;;;;;18.35;11.43;;;8.40;99.90;;;;;;5014637;28;20045;-77
2022/03/13 00:22:27;;;;;;;20.20;11.68;;;8.10;99.90;;;;;;4995413;28;20112;-76
2022/03/13 00:24:54;;;;;;;17.15;11.05;;;7.70;99.90;;;;;;4993814;28;20435;-76
2022/03/13 00:27:20;;;;;;;17.35;11.30;;;7.70;99.90;;;;;;5008137;28;20053;-76
2022/03/13 00:29:46;;;;;;;19.45;11.27;;;7.70;99.90;;;;;;5012323;28;20056;-76
2022/03/13 00:32:12;;;;;;;17.70;11.63;;;7.70;99.90;;;;;;5009255;28;20077;-75
2022/03/13 00:34:38;;;;;;;20.17;11.48;;;7.70;99.90;;;;;;5007270;28;20428;-77
2022/03/13 00:37:03;;;;;;;17.67;11.73;;;7.80;99.90;;;;;;5027571;28;20037;-77
2022/03/13 00:39:30;;;;;;;16.97;11.90;;;7.70;99.90;;;;;;5013545;28;20098;-76
2022/03/13 00:41:55;;;;;;;17.05;11.02;;;7.90;99.90;;;;;;5011568;28;20273;-78
2022/03/13 00:44:22;;;;;;;18.88;12.13;;;7.70;99.90;;;;;;5012734;28;20099;-76
2022/03/13 00:46:47;;;;;;;18.13;11.38;;;7.70;99.90;;;;;;5013149;28;20042;-76
2022/03/13 00:49:13;;;;;;;20.73;11.68;;;7.70;99.90;;;;;;5011743;28;20045;-76
2022/03/13 00:51:39;;;;;;;17.77;11.40;;;7.60;99.90;;;;;;5014918;28;20042;-77
2022/03/13 00:54:05;;;;;;;17.50;11.60;;;7.70;99.90;;;;;;5000115;28;20163;-78
2022/03/13 00:56:31;;;;;;;17.65;11.77;;;7.60;99.90;;;;;;5037598;28;20095;-77
2022/03/13 00:58:58;;;;;;;19.55;11.35;;;7.60;99.90;;;;;;5012757;28;20096;-77
2022/03/13 01:01:24;;;;;;;;;;;7.60;99.90;;;;;;5014834;28;20041;-77
2022/03/13 01:03:53;;;;;;;17.35;11.70;;;7.50;99.90;;;;;;5014577;28;20387;-77
2022/03/13 01:06:21;;;;;;;19.60;11.60;;;7.50;99.90;;;;;;5030661;28;20087;-77
2022/03/13 01:08:48;;;;;;;18.90;11.63;;;7.60;99.90;;;;;;5014479;28;20033;-76
2022/03/13 01:11:16;;;;;;;18.90;11.70;;;7.60;99.90;;;;;;5011813;28;20045;-76
2022/03/13 01:13:42;;;;;;;19.85;11.57;;;7.50;99.90;;;;;;5013734;28;20043;-75
2022/03/13 01:16:17;;;;;;;19.42;11.65;;;7.60;99.90;;;;;;4992501;28;20120;-76
2022/03/13 01:18:47;;;;;;;20.60;12.48;;;7.60;99.90;;;;;;4998003;28;20037;-76
2022/03/13 01:21:13;;;;;;;20.40;12.52;;;7.60;99.90;;;;;;5013778;28;20067;-76
2022/03/13 01:23:40;;;;;;;16.60;11.43;;;7.50;99.90;;;;;;5014043;28;20512;-76
2022/03/13 01:26:24;;;;;;;18.23;11.55;;;7.60;99.90;;;;;;5013524;28;20037;-76
2022/03/13 01:28:51;;;;;;;19.88;11.82;;;7.60;99.90;;;;;;4994393;28;20068;-76
2022/03/13 01:31:21;;;;;;;21.20;12.63;;;8.20;99.90;;;;;;5013477;28;20042;-76
2022/03/13 01:33:46;;;;;;;22.70;12.30;;;7.60;99.90;;;;;;5011543;28;20038;-76
2022/03/13 01:36:13;;;;;;;18.52;12.07;;;7.90;99.90;;;;;;5013448;28;20033;-76
2022/03/13 01:38:39;;;;;;;16.83;11.70;;;7.60;99.90;;;;;;5013817;28;20040;-76
2022/03/13 01:41:06;;;;;;;17.23;11.65;;;7.70;99.90;;;;;;5013658;28;20397;-76
2022/03/13 01:43:32;;;;;;;;;;;7.50;99.90;;;;;;4995881;28;20120;-77
2022/03/13 01:46:02;;;;;;;18.10;12.02;;;7.50;99.90;;;;;;5013631;28;20400;-77
2022/03/13 01:48:29;;;;;;;22.23;12.30;;;7.50;99.90;;;;;;5013699;28;20045;-77
2022/03/13 01:50:54;;;;;;;;;;;7.50;99.90;;;;;;5013931;28;20185;-77
2022/03/13 01:53:21;;;;;;;18.25;12.50;;;7.50;99.90;;;;;;5013341;28;20304;-77
2022/03/13 01:55:56;;;;;;;20.95;11.77;;;7.90;99.90;;;;;;4976322;28;20049;-77
2022/03/13 01:58:22;;;;;;;19.08;11.85;;;7.40;99.90;;;;;;5013703;28;20545;-77
2022/03/13 02:00:48;;;;;;;18.15;12.18;;;7.40;99.90;;;;;;4992395;28;20148;-77
2022/03/13 02:03:17;;;;;;;20.65;11.90;;;7.50;99.90;;;;;;5013709;28;20044;-77
2022/03/13 02:05:44;;;;;;;19.75;12.18;;;7.50;99.90;;;;;;5013315;28;20045;-76
2022/03/13 02:08:28;;;;;;;;;;;7.50;99.90;;;;;;5017405;28;20053;-77
2022/03/13 02:10:53;;;;;;;17.58;12.18;;;7.50;99.90;;;;;;5017279;28;19917;-77
2022/03/13 02:13:20;;;;;;;20.67;12.73;;;7.70;99.90;;;;;;5017354;28;20048;-77
2022/03/13 02:15:46;;;;;;;21.23;12.43;;;7.60;99.90;;;;;;5017110;28;20045;-77
2022/03/13 02:18:13;;;;;;;20.17;12.02;;;8.00;99.90;;;;;;5016979;28;20056;-77
2022/03/13 02:20:44;;;;;;;20.35;12.70;;;7.60;99.90;;;;;;5017347;28;20500;-77
2022/03/13 02:23:21;;;;;;;20.88;11.50;;;7.60;99.90;;;;;;5016755;28;20037;-77
2022/03/13 02:25:51;;;;;;;17.05;11.68;;;7.60;99.90;;;;;;5015240;28;20037;-77
2022/03/13 02:28:23;;;;;;;20.75;13.70;;;7.60;99.90;;;;;;5016025;28;20045;-77
2022/03/13 02:30:50;;;;;;;19.05;12.50;;;7.60;99.90;;;;;;5017153;28;20044;-77
2022/03/13 02:33:19;;;;;;;20.20;13.00;;;7.60;99.90;;;;;;5016920;28;20045;-77
2022/03/13 02:35:58;;;;;;;18.52;12.25;;;7.60;99.90;;;;;;5016722;28;20056;-76
2022/03/13 02:38:25;;;;;;;17.60;12.35;;;8.10;99.90;;;;;;5016021;28;20053;-76
2022/03/13 02:40:52;;;;;;;19.85;12.45;;;7.60;99.90;;;;;;5016679;28;20037;-76
2022/03/13 02:43:18;;;;;;;20.00;12.73;;;7.60;99.90;;;;;;5014415;28;20077;-76
2022/03/13 02:45:44;;;;;;;17.52;12.43;;;7.70;99.90;;;;;;5009528;28;20068;-75
2022/03/13 02:48:11;;;;;;;20.35;12.40;;;7.60;99.90;;;;;;5014438;28;20037;-76
2022/03/13 02:50:38;;;;;;;21.55;12.95;;;7.70;99.90;;;;;;5014177;28;20049;-77
2022/03/13 02:53:05;;;;;;;18.85;12.48;;;7.70;99.90;;;;;;5013570;28;20120;-76
2022/03/13 02:55:31;;;;;;;18.33;11.95;;;7.70;99.90;;;;;;5016822;28;20112;-78
2022/03/13 02:57:58;;;;;;;17.60;11.95;;;7.70;99.90;;;;;;5016472;28;20036;-77
2022/03/13 03:00:40;;;;;;;20.13;12.05;;;7.80;99.90;;;;;;5016087;28;20073;-76
2022/03/13 03:03:06;;;;;;;20.38;12.98;;;7.90;99.90;;;;;;5015638;28;20098;-77
2022/03/13 03:05:31;;;;;;;20.67;12.45;;;7.80;99.90;;;;;;5016556;28;20481;-76
2022/03/13 03:07:57;;;;;;;19.90;12.37;;;7.80;99.90;;;;;;5016638;28;20183;-77
2022/03/13 03:10:23;;;;;;;19.30;11.87;;;7.90;99.90;;;;;;5015900;28;20095;-77
2022/03/13 03:12:48;;;;;;;21.53;12.67;;;7.90;99.90;;;;;;5016650;28;20346;-77
2022/03/13 03:15:18;;;;;;;17.43;12.03;;;7.80;99.90;;;;;;5015599;28;20052;-77
2022/03/13 03:17:43;;;;;;;21.60;12.75;;;7.80;99.90;;;;;;5015913;28;20287;-77
2022/03/13 03:20:11;;;;;;;20.30;12.65;;;7.80;99.90;;;;;;4977479;28;20033;-77
2022/03/13 03:22:37;;;;;;;18.33;12.07;;;7.80;99.90;;;;;;5015886;28;20036;-76
2022/03/13 03:25:05;;;;;;;20.07;12.60;;;7.70;99.90;;;;;;5015844;28;20485;-76
2022/03/13 03:27:31;;;;;;;19.27;12.80;;;7.70;99.90;;;;;;5013859;28;20449;-76
2022/03/13 03:29:58;;;;;;;20.15;12.63;;;7.80;99.90;;;;;;5015540;28;20045;-76
2022/03/13 03:32:24;;;;;;;20.75;12.75;;;7.90;99.90;;;;;;5033778;28;20041;-76
2022/03/13 03:34:50;;;;;;;20.73;13.63;;;7.60;99.90;;;;;;4987490;28;20424;-76
2022/03/13 03:37:15;;;;;;;19.20;12.27;;;7.50;99.90;;;;;;5015627;28;20393;-76
2022/03/13 03:39:41;;;;;;;18.90;12.40;;;8.10;99.90;;;;;;5015191;28;20033;-77
2022/03/13 03:42:07;;;;;;;19.80;12.53;;;7.40;99.90;;;;;;5015051;28;20085;-77
2022/03/13 03:44:33;;;;;;;20.17;13.15;;;7.40;99.90;;;;;;5014779;28;20319;-77
2022/03/13 03:46:59;;;;;;;20.40;12.93;;;7.30;99.90;;;;;;4993836;28;20042;-77
2022/03/13 03:49:25;;;;;;;19.08;12.63;;;7.40;99.90;;;;;;5015042;28;20117;-77
2022/03/13 03:51:51;;;;;;;21.08;13.90;;;7.60;99.90;;;;;;4994500;28;20116;-76
2022/03/13 03:54:17;;;;;;;19.95;13.43;;;7.80;99.90;;;;;;5015075;28;20050;-76
2022/03/13 03:56:43;;;;;;;19.45;13.35;;;7.30;99.90;;;;;;5015554;28;20195;-77
2022/03/13 03:59:09;;;;;;;21.45;13.45;;;7.00;99.90;;;;;;4996564;28;20572;-77
2022/03/13 04:01:37;;;;;;;21.00;13.95;;;6.90;99.90;;;;;;5028475;28;20085;-77
2022/03/13 04:04:04;;;;;;;19.33;13.57;;;6.90;99.90;;;;;;5024719;28;20045;-77
2022/03/13 04:06:30;;;;;;;21.77;13.95;;;7.80;99.90;;;;;;5015203;28;20042;-77
2022/03/13 04:08:56;;;;;;;21.45;14.30;;;6.80;99.90;;;;;;4999409;28;20111;-77
2022/03/13 04:11:21;;;;;;;25.93;14.93;;;6.80;99.90;;;;;;5012877;28;20435;-77
2022/03/13 04:13:47;;;;;;;21.43;14.13;;;6.80;99.90;;;;;;5011894;28;20121;-76
2022/03/13 04:16:13;;;;;;;26.20;13.95;;;7.40;99.90;;;;;;5010031;28;20049;-77
2022/03/13 04:18:38;;;;;;;22.30;14.10;;;6.60;99.90;;;;;;5015189;28;20073;-76
2022/03/13 04:21:06;;;;;;;20.10;13.40;;;6.60;99.90;;;;;;4992451;28;20368;-76
2022/03/13 04:23:33;;;;;;;22.30;14.45;;;7.00;99.90;;;;;;5012847;28;20055;-76
2022/03/13 04:25:59;;;;;;;19.73;13.65;;;6.80;99.90;;;;;;5015406;28;20096;-77
2022/03/13 04:28:25;;;;;;;23.73;14.27;;;6.60;99.90;;;;;;5015038;28;20037;-76
2022/03/13 04:30:53;;;;;;;22.15;13.57;;;6.50;99.90;;;;;;5011453;28;20038;-76
2022/03/13 04:33:21;;;;;;;21.55;13.70;;;6.30;99.90;;;;;;5011309;28;20128;-76
2022/03/13 04:35:47;;;;;;;23.52;13.40;;;6.30;99.90;;;;;;5007441;28;20054;-76
2022/03/13 04:38:13;;;;;;;20.17;13.27;;;6.30;99.90;;;;;;4997971;28;20049;-76
2022/03/13 04:40:39;;;;;;;;;;;6.30;99.90;;;;;;5009803;28;20041;-76
2022/03/13 04:43:06;;;;;;;21.00;13.65;;;6.30;99.90;;;;;;5012166;28;19928;-75
2022/03/13 04:45:31;;;;;;;24.48;14.65;;;6.20;99.90;;;;;;5005006;28;20589;-78
2022/03/13 04:47:57;;;;;;;24.03;14.17;;;6.20;99.90;;;;;;5003148;28;20132;-76
2022/03/13 04:50:23;;;;;;;20.33;13.23;;;6.30;99.90;;;;;;5027389;28;20386;-76
2022/03/13 04:52:48;;;;;;;20.50;13.77;;;6.60;99.90;;;;;;5011087;28;20442;-76
2022/03/13 04:55:14;;;;;;;18.23;12.33;;;6.30;99.90;;;;;;5011110;28;20045;-76
2022/03/13 04:57:40;;;;;;;19.10;12.70;;;6.30;99.90;;;;;;5007873;28;20077;-76
2022/03/13 05:00:06;;;;;;;19.98;13.00;;;6.40;99.90;;;;;;5008957;28;20099;-76
2022/03/13 05:02:32;;;;;;;19.92;13.02;;;6.30;99.90;;;;;;5006637;28;20034;-76
2022/03/13 05:04:59;;;;;;;20.38;13.52;;;6.40;99.90;;;;;;5012019;28;20042;-76
2022/03/13 05:07:25;;;;;;;;;;;6.40;99.90;;;;;;5015152;28;20076;-75
2022/03/13 05:09:51;;;;;;;21.63;13.52;;;6.40;99.90;;;;;;5002044;28;19936;-76
2022/03/13 05:12:17;;;;;;;19.00;13.52;;;6.40;99.90;;;;;;5016011;28;20045;-75
2022/03/13 05:14:43;;;;;;;23.98;13.35;;;6.40;99.90;;;;;;5014306;28;20041;-76
2022/03/13 05:17:09;;;;;;;22.77;13.25;;;6.40;99.90;;;;;;5014216;28;20045;-75
2022/03/13 05:19:35;;;;;;;19.53;12.67;;;6.30;99.90;;;;;;4978815;28;20046;-76
2022/03/13 05:22:00;;;;;;;19.00;12.13;;;6.20;99.90;;;;;;5009463;28;20390;-76
2022/03/13 05:24:26;;;;;;;18.15;12.32;;;6.30;99.90;;;;;;5012633;28;20490;-75
2022/03/13 05:26:52;;;;;;;19.63;12.82;;;6.10;99.90;;;;;;5013025;28;20536;-75
2022/03/13 05:29:18;;;;;;;21.17;12.77;;;6.10;99.90;;;;;;5025199;28;20050;-75
2022/03/13 05:31:43;;;;;;;23.97;13.20;;;6.20;99.90;;;;;;5013333;28;20296;-76
2022/03/13 05:34:10;;;;;;;21.37;12.83;;;6.40;99.90;;;;;;5010907;28;20683;-76
2022/03/13 05:36:35;;;;;;;18.35;12.77;;;6.10;99.90;;;;;;5003650;28;20045;-76
2022/03/13 05:39:01;;;;;;;19.00;12.25;;;6.00;99.90;;;;;;5027369;28;20043;-76
2022/03/13 05:41:28;;;;;;;21.52;13.18;;;6.10;99.90;;;;;;5010029;28;20084;-77
2022/03/13 05:43:54;;;;;;;18.67;12.35;;;6.00;99.90;;;;;;5008248;28;20041;-76
2022/03/13 05:46:20;;;;;;;19.33;11.75;;;6.20;99.90;;;;;;5005394;28;20125;-77
2022/03/13 05:48:45;;;;;;;22.25;13.02;;;5.90;99.90;;;;;;5011311;28;20046;-77
2022/03/13 05:51:11;;;;;;;19.50;12.90;;;6.10;99.90;;;;;;5014669;28;20077;-75
2022/03/13 05:53:37;;;;;;;21.60;12.70;;;5.90;99.90;;;;;;4978675;28;20293;-76
2022/03/13 05:56:02;;;;;;;18.77;12.15;;;5.90;99.90;;;;;;5001374;28;20044;-76
2022/03/13 05:58:29;;;;;;;21.58;12.10;;;5.90;99.90;;;;;;5011823;28;20042;-76
2022/03/13 06:01:05;;;;;;;;;;;6.10;99.90;;;;;;5010883;28;20054;-76
2022/03/13 06:03:32;;;;;;;20.63;12.68;;;5.90;99.90;;;;;;5009709;28;20337;-76
2022/03/13 06:05:58;;;;;;;20.67;13.65;;;5.90;99.90;;;;;;4982780;28;20081;-76
2022/03/13 06:08:23;;;;;;;20.70;12.40;;;6.10;99.90;;;;;;5004273;28;20050;-77
2022/03/13 06:10:49;;;;;;;19.10;12.63;;;5.90;99.90;;;;;;5008598;28;20111;-76
2022/03/13 06:13:15;;;;;;;17.38;11.55;;;5.90;99.90;;;;;;4990155;28;20770;-76
2022/03/13 06:15:41;;;;;;;20.92;12.45;;;6.00;99.90;;;;;;5013019;28;20037;-76
2022/03/13 06:18:06;;;;;;;22.02;12.98;;;6.10;99.90;;;;;;5010378;28;20062;-76
2022/03/13 06:20:32;;;;;;;20.80;12.77;;;6.00;99.90;;;;;;4994113;28;20046;-76
2022/03/13 06:22:59;;;;;;;18.00;11.60;;;6.00;99.90;;;;;;4997152;28;20029;-76
2022/03/13 06:25:25;;;;;;;17.75;11.75;;;6.00;99.90;;;;;;5006098;28;20050;-76
2022/03/13 06:27:50;;;;;;;19.63;12.18;;;6.00;99.90;;;;;;4993627;28;20056;-76
2022/03/13 06:30:18;;;;;;;19.38;12.23;;;6.00;99.90;;;;;;5009859;28;20051;-76
2022/03/13 06:32:47;;;;;;;19.70;12.65;;;6.10;99.90;;;;;;5002138;28;20054;-76
2022/03/13 06:35:14;;;;;;;19.55;12.43;;;6.10;99.90;;;;;;5025952;28;20052;-76
2022/03/13 06:37:41;;;;;;;18.15;11.98;;;6.00;99.90;;;;;;5009753;28;20040;-76
2022/03/13 06:40:08;;;;;;;21.92;12.48;;;6.20;99.90;;;;;;4989573;28;20041;-76
2022/03/13 06:42:34;;;;;;;18.92;11.82;;;6.20;99.90;;;;;;5002292;28;20038;-76
2022/03/13 06:45:00;;;;;;;20.50;12.25;;;6.20;99.90;;;;;;4999078;28;20092;-76
2022/03/13 06:47:26;;;;;;;17.23;11.77;;;6.20;99.90;;;;;;5026419;28;20033;-76
2022/03/13 06:49:52;;;;;;;17.98;11.95;;;6.30;99.90;;;;;;5013141;28;20065;-76
2022/03/13 06:52:18;;;;;;;17.40;11.45;;;6.40;99.90;;;;;;5010688;28;20496;-76
2022/03/13 06:54:45;;;;;;;17.25;11.18;;;6.30;99.90;;;;;;5012213;28;20045;-76
2022/03/13 06:57:13;;;;;;;18.92;12.43;;;6.30;99.90;;;;;;5007894;28;20038;-76
2022/03/13 06:59:39;;;;;;;17.23;11.52;;;6.60;99.90;;;;;;5009528;28;20081;-77
2022/03/13 07:02:05;;;;;;;17.73;10.85;;;6.30;99.90;;;;;;5014081;28;20077;-77
2022/03/13 07:04:31;;;;;;;19.65;11.75;;;6.60;99.90;;;;;;5007695;28;20034;-77
2022/03/13 07:06:57;;;;;;;17.77;11.73;;;6.40;99.90;;;;;;4993526;28;20045;-77
2022/03/13 07:09:22;;;;;;;17.67;10.83;;;6.80;99.90;;;;;;5016304;28;20053;-77
2022/03/13 07:11:49;;;;;;;19.93;12.00;;;6.50;99.90;;;;;;4994586;28;20049;-77
2022/03/13 07:14:16;;;;;;;18.20;10.95;;;6.50;99.90;;;;;;5010030;28;20522;-77
2022/03/13 07:16:42;;;;;;;17.67;11.00;;;6.40;99.90;;;;;;5016061;28;20041;-77
2022/03/13 07:19:07;;;;;;;17.00;10.83;;;6.50;99.90;;;;;;5015095;28;20113;-77
2022/03/13 07:21:33;;;;;;;16.20;10.80;;;6.40;99.90;;;;;;5013206;28;20284;-77
2022/03/13 07:23:59;;;;;;;19.17;11.23;;;7.20;99.90;;;;;;5013751;28;20038;-77
2022/03/13 07:26:25;;;;;;;19.00;11.25;;;6.50;99.90;;;;;;5010760;28;20050;-77
2022/03/13 07:28:50;;;;;;;17.92;11.35;;;7.30;99.90;;;;;;5009680;28;20489;-77
2022/03/13 07:31:16;;;;;;;15.90;10.83;;;6.70;99.90;;;;;;5017732;28;20041;-75
2022/03/13 07:33:42;;;;;;;15.53;10.63;;;6.70;99.90;;;;;;5013626;28;20489;-76
2022/03/13 07:36:07;;;;;;;16.03;10.60;;;6.80;99.90;;;;;;5008965;28;20653;-76
2022/03/13 07:38:33;;;;;;;18.60;10.67;;;6.80;99.90;;;;;;5010918;28;20132;-76
2022/03/13 07:40:58;;;;;;;16.90;10.63;;;6.80;99.90;;;;;;5029997;28;20129;-76
2022/03/13 07:43:25;;;;;;;18.67;11.50;;;6.80;99.90;;;;;;4985901;28;20049;-76
2022/03/13 07:45:50;;;;;;;18.20;11.05;;;6.80;99.90;;;;;;5014320;28;20291;-76
2022/03/13 07:48:16;;;;;;;16.47;10.77;;;6.80;99.90;;;;;;4992894;28;20458;-76
2022/03/13 07:50:42;;;;;;;17.77;10.63;;;6.90;99.90;;;;;;5015317;28;20044;-75
2022/03/13 07:53:07;;;;;;;17.97;10.77;;;6.90;99.90;;;;;;5014140;28;20469;-76
2022/03/13 07:55:33;;;;;;;16.20;10.50;;;7.00;99.90;;;;;;5014370;28;20038;-76
2022/03/13 07:57:59;;;;;;;17.13;11.40;;;7.30;99.90;;;;;;5013583;28;20281;-76
2022/03/13 08:00:25;;;;;;;20.00;11.48;;;7.10;99.90;;;;;;5016084;28;20064;-75
2022/03/13 08:02:54;;;;;;;15.38;9.43;;;7.20;99.90;;;;;;5014605;28;20103;-75
2022/03/13 08:05:23;;;;;;;17.90;10.40;;;7.20;99.90;;;;;;5006966;28;20402;-76
2022/03/13 08:07:50;;;;;;;15.88;10.30;;;8.00;99.90;;;;;;5013426;28;20037;-76
2022/03/13 08:10:23;;;;;;;16.02;10.27;;;7.50;99.90;;;;;;5013372;28;20057;-82
2022/03/13 08:12:50;;;;;;;14.95;10.05;;;7.70;99.90;;;;;;5015067;28;20508;-81
2022/03/13 08:15:15;;;;;;;;;;;7.60;99.90;;;;;;5015674;28;20111;-80
2022/03/13 08:17:41;;;;;;;17.10;10.77;;;7.60;99.90;;;;;;5014949;28;19917;-77
2022/03/13 08:20:08;;;;;;;16.75;10.18;;;7.60;99.90;;;;;;5009459;28;20057;-77
2022/03/13 08:22:34;;;;;;;15.80;10.30;;;7.80;99.90;;;;;;5016894;28;20485;-78
2022/03/13 08:25:00;;;;;;;16.20;10.20;;;7.90;99.90;;;;;;4989636;28;20037;-78
2022/03/13 08:27:25;;;;;;;15.85;10.35;;;8.10;99.90;;;;;;5023342;28;20052;-78
2022/03/13 08:29:51;;;;;;;15.75;9.85;;;8.30;99.90;;;;;;5014290;28;20034;-78
2022/03/13 08:32:17;;;;;;;17.35;10.23;;;8.80;99.90;;;;;;5007491;28;20462;-79
2022/03/13 08:34:45;;;;;;;17.70;10.25;;;8.90;99.90;;;;;;5011935;28;20045;-80
2022/03/13 08:37:11;;;;;;;15.65;10.45;;;9.30;99.90;;;;;;5014520;28;20038;-81
2022/03/13 08:39:37;;;;;;;14.68;9.55;;;9.70;99.90;;;;;;5015359;28;20123;-80
2022/03/13 08:42:04;;;;;;;15.63;10.25;;;10.00;99.90;;;;;;5011401;28;20034;-80
2022/03/13 08:44:30;;;;;;;15.30;9.85;;;10.20;99.90;;;;;;5012409;28;20111;-78
2022/03/13 08:46:56;;;;;;;14.48;10.02;;;10.60;99.90;;;;;;5012329;28;20038;-77
2022/03/13 08:49:22;;;;;;;13.32;9.68;;;10.90;99.90;;;;;;5006583;28;20056;-77
2022/03/13 08:51:47;;;;;;;15.32;9.90;;;11.10;99.90;;;;;;5031411;28;20045;-77
2022/03/13 08:54:16;;;;;;;13.30;9.15;;;11.20;99.90;;;;;;5012220;28;20032;-77
2022/03/13 08:56:42;;;;;;;14.75;9.70;;;12.00;99.90;;;;;;5011939;28;20041;-78
2022/03/13 08:59:08;;;;;;;14.70;9.82;;;12.70;97.00;;;;;;4991183;28;20105;-77
2022/03/13 09:01:34;;;;;;;15.05;9.32;;;13.50;95.40;;;;;;5004866;28;20038;-76
2022/03/13 09:04:00;;;;;;;12.48;9.25;;;14.00;94.40;;;;;;5010273;28;20072;-77
2022/03/13 09:06:26;;;;;;;13.77;9.13;;;14.40;91.60;;;;;;5008456;28;20049;-77
2022/03/13 09:08:52;;;;;;;14.10;9.20;;;14.90;90.70;;;;;;4978168;28;20060;-77
2022/03/13 09:11:17;;;;;;;14.40;9.00;;;14.90;90.20;;;;;;4986611;28;20045;-78
2022/03/13 09:13:44;;;;;;;12.75;9.07;;;14.60;86.60;;;;;;5003864;28;20036;-77
2022/03/13 09:16:09;;;;;;;;;;;13.80;87.10;;;;;;5013698;28;20034;-77
2022/03/13 09:18:35;;;;;;;14.15;9.63;;;13.50;90.40;;;;;;5014569;28;19929;-77
2022/03/13 09:21:01;;;;;;;13.80;9.18;;;14.00;90.60;;;;;;5008019;28;20068;-78
2022/03/13 09:23:28;;;;;;;14.27;9.15;;;14.40;88.30;;;;;;5011795;28;20052;-77
2022/03/13 09:25:55;;;;;;;13.65;9.00;;;14.70;87.30;;;;;;5007649;28;20084;-78
2022/03/13 09:28:21;;;;;;;11.93;8.80;;;15.10;85.90;;;;;;5009173;28;20083;-78
2022/03/13 09:30:47;;;;;;;14.13;8.85;;;15.70;82.60;;;;;;5010508;28;20069;-78
2022/03/13 09:33:12;;;;;;;13.05;9.02;;;15.60;82.90;;;;;;5006370;28;20087;-78
2022/03/13 09:35:42;;;;;;;12.45;9.10;;;15.80;82.50;;;;;;5016134;28;20136;-77
2022/03/13 09:38:07;;;;;;;12.38;8.60;;;16.10;81.00;;;;;;5024674;28;20125;-77
2022/03/13 09:40:33;;;;;;;14.93;9.07;;;16.80;80.00;;;;;;5003821;28;20120;-78
2022/03/13 09:43:00;;;;;;;13.52;9.02;;;16.60;78.00;;;;;;5012095;28;20385;-78
2022/03/13 09:45:27;;;;;;;15.98;9.88;;;16.90;75.00;;;;;;5005891;28;20084;-78
2022/03/13 09:47:53;;;;;;;11.45;9.18;;;16.80;75.80;;;;;;5007332;28;20056;-78
2022/03/13 09:50:19;;;;;;;13.20;8.85;;;16.90;74.50;;;;;;5008450;28;20060;-78
2022/03/13 09:52:45;;;;;;;12.32;8.93;;;16.90;75.00;;;;;;5005513;28;20056;-77
2022/03/13 09:55:13;;;;;;;13.43;9.52;;;16.90;74.50;;;;;;5014228;28;20033;-78
2022/03/13 09:57:41;;;;;;;13.20;8.98;;;16.90;74.00;;;;;;5013719;28;20052;-78
2022/03/13 10:00:10;;;;;;;12.38;8.15;;;17.10;73.70;;;;;;5012569;28;20058;-78
2022/03/13 10:02:38;;;;;;;12.00;9.05;;;16.80;73.70;;;;;;4985455;28;20041;-78
2022/03/13 10:05:08;;;;;;;13.32;8.93;;;17.20;73.80;;;;;;5004179;28;20046;-78
2022/03/13 10:07:49;;;;;;;12.18;8.52;;;17.70;73.30;;;;;;4997280;28;20049;-78
2022/03/13 10:10:15;;;;;;;13.68;8.90;;;18.10;72.20;;;;;;5002589;28;20056;-78
2022/03/13 10:12:41;;;;;;;11.88;9.30;;;18.00;71.60;;;;;;5002798;28;20382;-78
2022/03/13 10:15:08;;;;;;;11.45;8.95;;;18.30;69.80;;;;;;5006160;28;20050;-78
2022/03/13 10:17:36;;;;;;;14.13;8.77;;;18.50;70.10;;;;;;5006250;28;20041;-78
2022/03/13 10:20:16;;;;;;;14.07;8.95;;;18.60;70.20;;;;;;5004489;28;20389;-78
2022/03/13 10:22:43;;;;;;;12.80;9.50;;;18.60;69.20;;;;;;5007033;28;20033;-78
2022/03/13 10:25:11;;;;;;;11.52;8.40;;;18.80;70.50;;;;;;4987669;28;20127;-78
2022/03/13 10:27:37;;;;;;;12.55;9.23;;;19.60;68.60;;;;;;5009580;28;20052;-78
2022/03/13 10:30:07;;;;;;;10.82;8.13;;;19.80;67.10;;;;;;5009889;28;20045;-77
2022/03/13 10:32:34;;;;;;;12.48;9.02;;;19.70;66.40;;;;;;4992888;28;20069;-77
2022/03/13 10:35:01;;;;;;;11.38;8.85;;;20.10;67.40;;;;;;5004969;28;20050;-77
2022/03/13 10:37:33;;;;;;;13.75;8.88;;;20.40;64.70;;;;;;5004792;28;20044;-77
2022/03/13 10:40:24;;;;;;;14.93;9.43;;;20.40;65.10;;;;;;4990815;28;20044;-78
2022/03/13 10:42:51;;;;;;;12.75;9.32;;;20.40;65.00;;;;;;4996209;28;20050;-77
2022/03/13 10:45:37;;;;;;;12.80;9.43;;;21.00;65.00;;;;;;4991144;28;20574;-78
2022/03/13 10:48:18;;;;;;;12.60;9.35;;;20.90;64.60;;;;;;5009598;28;20049;-78
2022/03/13 10:50:45;;;;;;;11.70;9.27;;;21.00;63.20;;;;;;5007424;28;20394;-78
2022/03/13 10:53:14;;;;;;;13.73;9.48;;;21.40;63.60;;;;;;5006649;28;20041;-78
2022/03/13 10:55:44;;;;;;;14.40;9.35;;;21.50;63.10;;;;;;5004477;28;20048;-77
2022/03/13 10:58:16;;;;;;;12.63;9.50;;;21.90;63.30;;;;;;5009146;28;20037;-78
2022/03/13 11:00:45;;;;;;;12.52;8.80;;;21.90;61.20;;;;;;5007123;28;20124;-78
2022/03/13 11:03:14;;;;;;;16.23;9.57;;;22.00;61.60;;;;;;5032890;28;20049;-78
2022/03/13 11:05:40;;;;;;;13.27;9.27;;;22.10;61.80;;;;;;4999722;28;20191;-79
2022/03/13 11:08:08;;;;;;;13.10;9.90;;;22.10;61.80;;;;;;5016259;28;20060;-77
2022/03/13 11:10:36;;;;;;;12.90;9.52;;;22.30;60.20;;;;;;5016215;28;20049;-79
2022/03/13 11:13:04;;;;;;;13.15;9.45;;;22.50;61.50;;;;;;5014206;28;20077;-79
2022/03/13 11:15:31;;;;;;;12.43;9.18;;;21.60;61.60;;;;;;5016172;28;20038;-79
2022/03/13 11:17:59;;;;;;;12.63;9.30;;;21.50;63.70;;;;;;5015758;28;20037;-79
2022/03/13 11:20:25;;;;;;;12.93;9.35;;;21.60;62.10;;;;;;5016333;28;20430;-78
2022/03/13 11:22:51;;;;;;;12.88;9.23;;;22.10;61.40;;;;;;5015645;28;20038;-78
2022/03/13 11:25:17;;;;;;;;;;;21.40;62.90;;;;;;5016669;28;20046;-79
2022/03/13 11:27:45;;;;;;;14.82;9.45;;;21.30;62.00;;;;;;5015344;28;19923;-79
2022/03/13 11:30:17;;;;;;;11.82;9.30;;;21.40;61.80;;;;;;5016124;28;20041;-79
2022/03/13 11:32:50;;;;;;;13.23;9.40;;;21.30;61.60;;;;;;5011460;28;20416;-78
2022/03/13 11:35:18;;;;;;;14.25;9.98;;;20.90;62.50;;;;;;5015846;28;20490;-79
2022/03/13 11:38:08;;;;;;;15.70;9.88;;;20.50;62.60;;;;;;5015753;28;20065;-79
2022/03/13 11:40:36;;;;;;;13.98;9.07;;;20.40;63.30;;;;;;5015314;28;20041;-79
2022/03/13 11:43:17;;;;;;;15.88;9.55;;;20.50;63.30;;;;;;5014476;28;20057;-79
2022/03/13 11:45:51;;;;;;;11.20;8.98;;;20.80;62.50;;;;;;5012876;28;20527;-78
2022/03/13 11:48:19;;;;;;;14.30;9.00;;;21.50;62.80;;;;;;5015138;28;20045;-78
2022/03/13 11:50:58;;;;;;;11.25;9.10;;;21.00;63.10;;;;;;5015424;28;20045;-78
2022/03/13 11:53:50;;;;;;;12.85;8.88;;;20.40;63.10;;;;;;5007708;28;20046;-80
2022/03/13 11:56:28;;;;;;;11.98;9.05;;;21.00;62.20;;;;;;4993790;28;20058;-80
2022/03/13 11:59:13;;;;;;;12.00;8.95;;;21.10;62.70;;;;;;5015224;28;20087;-79
2022/03/13 12:01:39;;;;;;;11.15;8.35;;;21.10;62.40;;;;;;5015217;28;20409;-79
2022/03/13 12:04:09;;;;;;;11.40;8.80;;;21.10;62.20;;;;;;5015233;28;20045;-78
2022/03/13 12:06:43;;;;;;;12.07;8.57;;;21.30;61.70;;;;;;5015506;28;20404;-78
2022/03/13 12:09:48;;;;;;;13.88;8.95;;;21.70;62.10;;;;;;5008427;28;20041;-79
2022/03/13 12:12:17;;;;;;;13.38;9.05;;;22.30;61.00;;;;;;5013621;28;20050;-79
2022/03/13 12:15:01;;;;;;;11.60;8.95;;;22.10;61.10;;;;;;5012419;28;20048;-79
2022/03/13 12:17:43;;;;;;;12.70;9.18;;;22.10;60.90;;;;;;5013771;28;20084;-79
2022/03/13 12:20:26;;;;;;;11.95;9.10;;;22.00;60.60;;;;;;5030689;28;20545;-79
2022/03/13 12:22:57;;;;;;;11.93;8.60;;;21.70;61.30;;;;;;5014268;28;20099;-79
2022/03/13 12:25:25;;;;;;;12.68;9.10;;;22.00;60.30;;;;;;5015136;28;20052;-79
2022/03/13 12:27:51;;;;;;;11.93;8.65;;;22.30;60.00;;;;;;5014715;28;20045;-79
2022/03/13 12:30:28;;;;;;;12.20;8.95;;;22.00;60.40;;;;;;5014768;28;20048;-79
2022/03/13 12:32:58;;;;;;;11.32;8.52;;;22.20;60.20;;;;;;5014673;28;20048;-79
2022/03/13 12:35:25;;;;;;;12.88;8.80;;;22.40;60.40;;;;;;5014984;28;20287;-79
2022/03/13 12:38:01;;;;;;;13.73;9.25;;;22.40;60.30;;;;;;5014936;28;20401;-79
2022/03/13 12:40:30;;;;;;;11.18;8.85;;;22.60;59.80;;;;;;5014691;28;20042;-79
2022/03/13 12:42:59;;;;;;;12.00;9.40;;;22.40;60.20;;;;;;5014310;28;20049;-79